sensor_id;sensor_type;location;lat;lon;timestamp;pressure;altitude;pressure_sealevel;temperature;humidity
82256;BME280;74246;42.044;-91.642;2024-03-25T00:00:16;97650.88;;;11.36;41.06
82256;BME280;74246;42.044;-91.642;2024-03-25T00:00:49;97647.75;;;10.92;41.82
82256;BME280;74246;42.044;-91.642;2024-03-25T00:01:21;97653.50;;;9.91;44.69
82256;BME280;74246;42.044;-91.642;2024-03-25T00:01:54;97658.19;;;10.06;44.52
82256;BME280;74246;42.044;-91.642;2024-03-25T00:02:26;97625.75;;;10.54;43.79
82256;BME280;74246;42.044;-91.642;2024-03-25T00:02:58;97642.19;;;11.11;43.06
82256;BME280;74246;42.044;-91.642;2024-03-25T00:03:30;97646.00;;;11.03;43.04
82256;BME280;74246;42.044;-91.642;2024-03-25T00:04:02;97640.38;;;10.77;43.18
82256;BME280;74246;42.044;-91.642;2024-03-25T00:04:34;97592.69;;;10.96;42.71
82256;BME280;74246;42.044;-91.642;2024-03-25T00:05:08;97620.38;;;10.61;42.96
82256;BME280;74246;42.044;-91.642;2024-03-25T00:05:43;97653.75;;;10.75;43.58
82256;BME280;74246;42.044;-91.642;2024-03-25T00:06:17;97633.75;;;10.40;43.70
82256;BME280;74246;42.044;-91.642;2024-03-25T00:06:49;97639.66;;;10.80;43.62
82256;BME280;74246;42.044;-91.642;2024-03-25T00:07:23;97641.25;;;10.23;43.98
82256;BME280;74246;42.044;-91.642;2024-03-25T00:07:55;97351.28;;;8.27;44.71
82256;BME280;74246;42.044;-91.642;2024-03-25T00:08:27;97646.91;;;10.50;44.60
82256;BME280;74246;42.044;-91.642;2024-03-25T00:09:02;97664.31;;;10.54;43.84
82256;BME280;74246;42.044;-91.642;2024-03-25T00:09:34;97640.81;;;10.79;43.22
82256;BME280;74246;42.044;-91.642;2024-03-25T00:10:07;97643.19;;;10.04;44.95
82256;BME280;74246;42.044;-91.642;2024-03-25T00:10:40;97652.06;;;10.32;44.80
82256;BME280;74246;42.044;-91.642;2024-03-25T00:11:12;97514.03;;;9.95;43.81
82256;BME280;74246;42.044;-91.642;2024-03-25T00:11:44;97639.56;;;11.18;42.53
82256;BME280;74246;42.044;-91.642;2024-03-25T00:12:16;97638.13;;;10.83;42.93
82256;BME280;74246;42.044;-91.642;2024-03-25T00:12:48;97641.94;;;10.97;43.02
82256;BME280;74246;42.044;-91.642;2024-03-25T00:13:24;97610.38;;;11.17;42.72
82256;BME280;74246;42.044;-91.642;2024-03-25T00:13:56;97532.84;;;10.32;43.45
82256;BME280;74246;42.044;-91.642;2024-03-25T00:14:28;97488.25;;;9.65;44.37
82256;BME280;74246;42.044;-91.642;2024-03-25T00:15:03;97654.75;;;10.67;44.00
82256;BME280;74246;42.044;-91.642;2024-03-25T00:15:36;97644.91;;;11.08;43.83
82256;BME280;74246;42.044;-91.642;2024-03-25T00:16:09;97637.75;;;11.52;42.55
82256;BME280;74246;42.044;-91.642;2024-03-25T00:16:41;97645.66;;;11.54;42.73
82256;BME280;74246;42.044;-91.642;2024-03-25T00:17:13;97578.19;;;11.25;42.70
82256;BME280;74246;42.044;-91.642;2024-03-25T00:17:47;97489.69;;;9.97;43.64
82256;BME280;74246;42.044;-91.642;2024-03-25T00:18:19;97638.69;;;11.14;42.95
82256;BME280;74246;42.044;-91.642;2024-03-25T00:18:51;97585.63;;;10.98;44.55
82256;BME280;74246;42.044;-91.642;2024-03-25T00:19:23;97528.78;;;10.45;43.46
82256;BME280;74246;42.044;-91.642;2024-03-25T00:19:55;97644.97;;;10.31;44.68
82256;BME280;74246;42.044;-91.642;2024-03-25T00:20:27;97649.38;;;10.16;46.49
82256;BME280;74246;42.044;-91.642;2024-03-25T00:20:59;97576.06;;;10.69;47.15
82256;BME280;74246;42.044;-91.642;2024-03-25T00:21:31;97481.38;;;10.36;44.01
82256;BME280;74246;42.044;-91.642;2024-03-25T00:22:03;97568.19;;;11.40;42.31
82256;BME280;74246;42.044;-91.642;2024-03-25T00:22:35;97639.72;;;12.01;41.62
82256;BME280;74246;42.044;-91.642;2024-03-25T00:23:08;97644.03;;;11.49;42.75
82256;BME280;74246;42.044;-91.642;2024-03-25T00:23:40;97649.72;;;10.92;44.02
82256;BME280;74246;42.044;-91.642;2024-03-25T00:24:11;97652.06;;;11.12;43.73
82256;BME280;74246;42.044;-91.642;2024-03-25T00:24:44;97541.53;;;10.53;43.83
82256;BME280;74246;42.044;-91.642;2024-03-25T00:25:16;97541.81;;;10.09;47.19
82256;BME280;74246;42.044;-91.642;2024-03-25T00:25:48;97643.22;;;10.42;45.43
82256;BME280;74246;42.044;-91.642;2024-03-25T00:26:20;97641.59;;;10.57;46.16
82256;BME280;74246;42.044;-91.642;2024-03-25T00:26:52;97570.56;;;9.73;46.61
82256;BME280;74246;42.044;-91.642;2024-03-25T00:27:24;97594.50;;;9.89;46.65
82256;BME280;74246;42.044;-91.642;2024-03-25T00:27:57;97623.13;;;10.03;46.93
82256;BME280;74246;42.044;-91.642;2024-03-25T00:28:29;97598.44;;;9.72;47.15
82256;BME280;74246;42.044;-91.642;2024-03-25T00:29:01;97620.16;;;9.93;46.70
82256;BME280;74246;42.044;-91.642;2024-03-25T00:29:33;97642.88;;;10.25;46.71
82256;BME280;74246;42.044;-91.642;2024-03-25T00:30:06;97508.84;;;8.39;48.75
82256;BME280;74246;42.044;-91.642;2024-03-25T00:30:38;97573.81;;;8.78;49.00
82256;BME280;74246;42.044;-91.642;2024-03-25T00:31:10;97643.72;;;9.74;48.16
82256;BME280;74246;42.044;-91.642;2024-03-25T00:31:43;97519.66;;;8.94;47.91
82256;BME280;74246;42.044;-91.642;2024-03-25T00:32:15;97531.06;;;9.82;46.41
82256;BME280;74246;42.044;-91.642;2024-03-25T00:32:47;97530.59;;;9.80;45.75
82256;BME280;74246;42.044;-91.642;2024-03-25T00:33:19;97636.56;;;10.43;46.11
82256;BME280;74246;42.044;-91.642;2024-03-25T00:33:51;97592.38;;;10.01;45.85
82256;BME280;74246;42.044;-91.642;2024-03-25T00:34:23;97619.16;;;10.39;46.04
82256;BME280;74246;42.044;-91.642;2024-03-25T00:34:55;97512.50;;;9.59;46.00
82256;BME280;74246;42.044;-91.642;2024-03-25T00:35:27;97636.13;;;9.87;47.03
82256;BME280;74246;42.044;-91.642;2024-03-25T00:35:59;97342.88;;;7.89;46.90
82256;BME280;74246;42.044;-91.642;2024-03-25T00:36:31;97564.59;;;10.26;46.08
82256;BME280;74246;42.044;-91.642;2024-03-25T00:37:04;97635.00;;;10.23;46.30
82256;BME280;74246;42.044;-91.642;2024-03-25T00:37:36;97377.41;;;8.21;47.36
82256;BME280;74246;42.044;-91.642;2024-03-25T00:38:08;97635.25;;;9.83;47.36
82256;BME280;74246;42.044;-91.642;2024-03-25T00:38:40;97427.69;;;8.25;47.71
82256;BME280;74246;42.044;-91.642;2024-03-25T00:39:12;97530.75;;;9.33;47.28
82256;BME280;74246;42.044;-91.642;2024-03-25T00:39:45;97528.44;;;8.84;48.14
82256;BME280;74246;42.044;-91.642;2024-03-25T00:40:18;97635.63;;;9.82;47.83
82256;BME280;74246;42.044;-91.642;2024-03-25T00:40:50;97528.50;;;9.03;47.30
82256;BME280;74246;42.044;-91.642;2024-03-25T00:41:22;97635.88;;;9.77;47.77
82256;BME280;74246;42.044;-91.642;2024-03-25T00:41:54;97607.44;;;9.53;48.04
82256;BME280;74246;42.044;-91.642;2024-03-25T00:42:26;97644.38;;;9.37;49.48
82256;BME280;74246;42.044;-91.642;2024-03-25T00:42:58;97615.19;;;9.32;48.67
82256;BME280;74246;42.044;-91.642;2024-03-25T00:43:30;97639.53;;;9.81;48.27
82256;BME280;74246;42.044;-91.642;2024-03-25T00:44:02;97462.28;;;9.27;46.88
82256;BME280;74246;42.044;-91.642;2024-03-25T00:44:34;97637.50;;;10.70;45.68
82256;BME280;74246;42.044;-91.642;2024-03-25T00:45:06;97632.06;;;10.96;44.85
82256;BME280;74246;42.044;-91.642;2024-03-25T00:45:39;97560.03;;;10.33;44.83
82256;BME280;74246;42.044;-91.642;2024-03-25T00:46:11;97508.44;;;10.11;44.98
82256;BME280;74246;42.044;-91.642;2024-03-25T00:46:43;97625.56;;;10.85;45.16
82256;BME280;74246;42.044;-91.642;2024-03-25T00:47:15;97630.09;;;10.55;45.04
82256;BME280;74246;42.044;-91.642;2024-03-25T00:47:47;97495.53;;;9.57;46.28
82256;BME280;74246;42.044;-91.642;2024-03-25T00:48:20;97617.25;;;11.04;45.24
82256;BME280;74246;42.044;-91.642;2024-03-25T00:48:52;97612.78;;;11.19;44.04
82256;BME280;74246;42.044;-91.642;2024-03-25T00:49:24;97617.09;;;11.43;44.05
82256;BME280;74246;42.044;-91.642;2024-03-25T00:49:56;97567.13;;;11.74;42.93
82256;BME280;74246;42.044;-91.642;2024-03-25T00:50:28;97454.69;;;10.62;42.86
82256;BME280;74246;42.044;-91.642;2024-03-25T00:51:00;97604.38;;;11.35;43.69
82256;BME280;74246;42.044;-91.642;2024-03-25T00:51:32;97300.66;;;8.79;44.14
82256;BME280;74246;42.044;-91.642;2024-03-25T00:52:04;97570.97;;;10.49;45.60
82256;BME280;74246;42.044;-91.642;2024-03-25T00:52:36;97602.13;;;11.44;44.16
82256;BME280;74246;42.044;-91.642;2024-03-25T00:53:08;97612.06;;;10.80;44.27
82256;BME280;74246;42.044;-91.642;2024-03-25T00:53:41;97603.47;;;11.04;44.62
82256;BME280;74246;42.044;-91.642;2024-03-25T00:54:13;97581.22;;;10.71;44.92
82256;BME280;74246;42.044;-91.642;2024-03-25T00:54:45;97593.13;;;9.98;47.13
82256;BME280;74246;42.044;-91.642;2024-03-25T00:55:17;97600.16;;;9.96;48.03
82256;BME280;74246;42.044;-91.642;2024-03-25T00:55:49;97610.31;;;9.41;49.01
82256;BME280;74246;42.044;-91.642;2024-03-25T00:56:21;97613.16;;;9.13;49.74
82256;BME280;74246;42.044;-91.642;2024-03-25T00:56:53;97607.56;;;9.41;49.21
82256;BME280;74246;42.044;-91.642;2024-03-25T00:57:25;97555.28;;;8.91;48.59
82256;BME280;74246;42.044;-91.642;2024-03-25T00:57:57;97612.34;;;9.60;49.24
82256;BME280;74246;42.044;-91.642;2024-03-25T00:58:29;97492.97;;;8.79;49.24
82256;BME280;74246;42.044;-91.642;2024-03-25T00:59:01;97607.94;;;9.94;48.68
82256;BME280;74246;42.044;-91.642;2024-03-25T00:59:37;97359.44;;;8.40;47.30
82256;BME280;74246;42.044;-91.642;2024-03-25T01:00:09;97626.84;;;9.76;48.39
82256;BME280;74246;42.044;-91.642;2024-03-25T01:00:42;97606.78;;;9.75;48.92
82256;BME280;74246;42.044;-91.642;2024-03-25T01:01:14;97572.25;;;9.78;48.08
82256;BME280;74246;42.044;-91.642;2024-03-25T01:01:46;97607.00;;;10.40;47.55
82256;BME280;74246;42.044;-91.642;2024-03-25T01:02:18;97600.88;;;10.69;47.11
82256;BME280;74246;42.044;-91.642;2024-03-25T01:02:52;97604.41;;;10.12;47.99
82256;BME280;74246;42.044;-91.642;2024-03-25T01:03:24;97581.63;;;10.12;47.37
82256;BME280;74246;42.044;-91.642;2024-03-25T01:03:56;97526.66;;;10.15;45.88
82256;BME280;74246;42.044;-91.642;2024-03-25T01:04:28;97602.56;;;10.55;45.33
82256;BME280;74246;42.044;-91.642;2024-03-25T01:05:00;97556.91;;;9.96;47.02
82256;BME280;74246;42.044;-91.642;2024-03-25T01:05:32;97581.72;;;10.15;46.75
82256;BME280;74246;42.044;-91.642;2024-03-25T01:06:04;97611.16;;;10.73;45.18
82256;BME280;74246;42.044;-91.642;2024-03-25T01:06:36;97543.88;;;10.32;45.00
82256;BME280;74246;42.044;-91.642;2024-03-25T01:07:09;97600.19;;;10.76;45.33
82256;BME280;74246;42.044;-91.642;2024-03-25T01:07:41;97599.47;;;10.79;45.63
82256;BME280;74246;42.044;-91.642;2024-03-25T01:08:13;97567.03;;;10.50;45.20
82256;BME280;74246;42.044;-91.642;2024-03-25T01:08:46;97606.59;;;11.03;44.69
82256;BME280;74246;42.044;-91.642;2024-03-25T01:09:18;97587.31;;;10.61;45.16
82256;BME280;74246;42.044;-91.642;2024-03-25T01:09:50;97601.66;;;10.70;45.36
82256;BME280;74246;42.044;-91.642;2024-03-25T01:10:22;97601.63;;;11.12;44.19
82256;BME280;74246;42.044;-91.642;2024-03-25T01:10:54;97583.28;;;10.55;44.34
82256;BME280;74246;42.044;-91.642;2024-03-25T01:11:26;97522.41;;;10.41;43.93
82256;BME280;74246;42.044;-91.642;2024-03-25T01:12:01;97564.63;;;10.67;44.04
82256;BME280;74246;42.044;-91.642;2024-03-25T01:12:33;97460.44;;;10.54;42.96
82256;BME280;74246;42.044;-91.642;2024-03-25T01:13:04;97453.25;;;10.46;42.44
82256;BME280;74246;42.044;-91.642;2024-03-25T01:13:37;97065.75;;;7.66;43.67
82256;BME280;74246;42.044;-91.642;2024-03-25T01:14:09;97582.28;;;11.08;43.80
82256;BME280;74246;42.044;-91.642;2024-03-25T01:14:41;97611.22;;;10.76;44.31
82256;BME280;74246;42.044;-91.642;2024-03-25T01:15:13;97522.53;;;10.48;44.98
82256;BME280;74246;42.044;-91.642;2024-03-25T01:15:45;97572.50;;;10.69;44.32
82256;BME280;74246;42.044;-91.642;2024-03-25T01:16:17;97594.06;;;10.63;44.87
82256;BME280;74246;42.044;-91.642;2024-03-25T01:16:48;97565.72;;;10.86;43.21
82256;BME280;74246;42.044;-91.642;2024-03-25T01:17:20;97496.94;;;10.70;43.67
82256;BME280;74246;42.044;-91.642;2024-03-25T01:17:52;97490.38;;;11.01;42.39
82256;BME280;74246;42.044;-91.642;2024-03-25T01:18:24;97617.28;;;11.53;42.59
82256;BME280;74246;42.044;-91.642;2024-03-25T01:18:56;97631.63;;;11.17;43.86
82256;BME280;74246;42.044;-91.642;2024-03-25T01:19:29;97616.38;;;11.46;43.01
82256;BME280;74246;42.044;-91.642;2024-03-25T01:20:01;97628.00;;;11.36;42.96
82256;BME280;74246;42.044;-91.642;2024-03-25T01:20:34;97597.50;;;11.02;43.54
82256;BME280;74246;42.044;-91.642;2024-03-25T01:21:06;97617.22;;;11.50;43.59
82256;BME280;74246;42.044;-91.642;2024-03-25T01:21:38;97626.81;;;11.82;42.53
82256;BME280;74246;42.044;-91.642;2024-03-25T01:22:10;97628.72;;;11.78;42.03
82256;BME280;74246;42.044;-91.642;2024-03-25T01:22:42;97626.59;;;10.77;45.46
82256;BME280;74246;42.044;-91.642;2024-03-25T01:23:14;97635.00;;;10.84;44.96
82256;BME280;74246;42.044;-91.642;2024-03-25T01:23:46;97489.97;;;10.11;44.15
82256;BME280;74246;42.044;-91.642;2024-03-25T01:24:18;97576.44;;;11.13;43.87
82256;BME280;74246;42.044;-91.642;2024-03-25T01:24:51;97633.41;;;11.29;43.62
82256;BME280;74246;42.044;-91.642;2024-03-25T01:25:23;97634.16;;;11.03;43.10
82256;BME280;74246;42.044;-91.642;2024-03-25T01:25:55;97635.38;;;11.05;43.98
82256;BME280;74246;42.044;-91.642;2024-03-25T01:26:27;97623.44;;;11.20;43.91
82256;BME280;74246;42.044;-91.642;2024-03-25T01:27:00;97443.06;;;10.50;42.95
82256;BME280;74246;42.044;-91.642;2024-03-25T01:27:32;97633.25;;;11.67;42.48
82256;BME280;74246;42.044;-91.642;2024-03-25T01:28:04;97669.72;;;11.31;42.95
82256;BME280;74246;42.044;-91.642;2024-03-25T01:28:36;97473.09;;;9.94;43.55
82256;BME280;74246;42.044;-91.642;2024-03-25T01:29:08;97636.66;;;10.89;44.72
82256;BME280;74246;42.044;-91.642;2024-03-25T01:29:40;97641.19;;;10.78;44.45
82256;BME280;74246;42.044;-91.642;2024-03-25T01:30:13;97525.31;;;9.90;44.86
82256;BME280;74246;42.044;-91.642;2024-03-25T01:30:46;97639.78;;;10.87;44.57
82256;BME280;74246;42.044;-91.642;2024-03-25T01:31:18;97584.09;;;10.17;45.24
82256;BME280;74246;42.044;-91.642;2024-03-25T01:31:51;97672.44;;;10.28;45.49
82256;BME280;74246;42.044;-91.642;2024-03-25T01:32:23;97553.59;;;9.52;46.54
82256;BME280;74246;42.044;-91.642;2024-03-25T01:32:55;97650.06;;;10.29;45.88
82256;BME280;74246;42.044;-91.642;2024-03-25T01:33:27;97550.47;;;9.54;45.85
82256;BME280;74246;42.044;-91.642;2024-03-25T01:33:59;97618.97;;;10.29;46.17
82256;BME280;74246;42.044;-91.642;2024-03-25T01:34:31;97641.88;;;10.33;45.57
82256;BME280;74246;42.044;-91.642;2024-03-25T01:35:03;97636.06;;;10.18;46.08
82256;BME280;74246;42.044;-91.642;2024-03-25T01:35:36;97643.59;;;10.41;46.09
82256;BME280;74246;42.044;-91.642;2024-03-25T01:36:08;97647.78;;;10.54;45.57
82256;BME280;74246;42.044;-91.642;2024-03-25T01:36:42;97652.47;;;10.31;44.83
82256;BME280;74246;42.044;-91.642;2024-03-25T01:37:14;97640.13;;;10.25;45.79
82256;BME280;74246;42.044;-91.642;2024-03-25T01:37:46;97612.66;;;10.28;45.86
82256;BME280;74246;42.044;-91.642;2024-03-25T01:38:19;97635.88;;;10.88;44.16
82256;BME280;74246;42.044;-91.642;2024-03-25T01:38:51;97635.75;;;10.23;45.25
82256;BME280;74246;42.044;-91.642;2024-03-25T01:39:23;97627.75;;;10.34;45.32
82256;BME280;74246;42.044;-91.642;2024-03-25T01:39:58;97641.06;;;10.70;44.61
82256;BME280;74246;42.044;-91.642;2024-03-25T01:40:30;97635.72;;;10.81;43.87
82256;BME280;74246;42.044;-91.642;2024-03-25T01:41:09;97593.38;;;10.28;44.90
82256;BME280;74246;42.044;-91.642;2024-03-25T01:41:41;97639.47;;;10.92;43.89
82256;BME280;74246;42.044;-91.642;2024-03-25T01:42:13;97632.50;;;10.76;43.71
82256;BME280;74246;42.044;-91.642;2024-03-25T01:42:58;97597.94;;;10.20;44.43
82256;BME280;74246;42.044;-91.642;2024-03-25T01:43:31;97416.94;;;8.83;44.65
82256;BME280;74246;42.044;-91.642;2024-03-25T01:44:03;97626.44;;;10.12;44.76
82256;BME280;74246;42.044;-91.642;2024-03-25T01:44:36;97262.47;;;7.85;44.87
82256;BME280;74246;42.044;-91.642;2024-03-25T01:45:08;97624.88;;;10.11;44.20
82256;BME280;74246;42.044;-91.642;2024-03-25T01:45:42;97636.38;;;9.63;46.07
82256;BME280;74246;42.044;-91.642;2024-03-25T01:46:15;97473.41;;;8.81;45.98
82256;BME280;74246;42.044;-91.642;2024-03-25T01:46:47;97576.00;;;9.70;46.31
82256;BME280;74246;42.044;-91.642;2024-03-25T01:47:19;97627.19;;;10.09;45.28
82256;BME280;74246;42.044;-91.642;2024-03-25T01:47:52;97641.66;;;10.06;45.41
82256;BME280;74246;42.044;-91.642;2024-03-25T01:48:26;97291.22;;;7.75;45.11
82256;BME280;74246;42.044;-91.642;2024-03-25T01:48:58;97569.78;;;9.92;44.62
82256;BME280;74246;42.044;-91.642;2024-03-25T01:49:30;97649.25;;;10.48;44.51
82256;BME280;74246;42.044;-91.642;2024-03-25T01:50:03;97645.28;;;10.45;43.12
82256;BME280;74246;42.044;-91.642;2024-03-25T01:50:37;97577.47;;;10.02;43.26
82256;BME280;74246;42.044;-91.642;2024-03-25T01:51:13;97659.25;;;10.37;43.97
82256;BME280;74246;42.044;-91.642;2024-03-25T01:51:46;97554.88;;;9.93;43.43
82256;BME280;74246;42.044;-91.642;2024-03-25T01:52:20;97632.88;;;10.36;43.55
82256;BME280;74246;42.044;-91.642;2024-03-25T01:52:54;97658.59;;;10.24;44.29
82256;BME280;74246;42.044;-91.642;2024-03-25T01:53:28;97467.81;;;9.12;43.96
82256;BME280;74246;42.044;-91.642;2024-03-25T01:54:01;97549.66;;;10.46;42.14
82256;BME280;74246;42.044;-91.642;2024-03-25T01:54:36;97665.19;;;11.42;40.75
82256;BME280;74246;42.044;-91.642;2024-03-25T01:55:14;97447.25;;;9.79;42.03
82256;BME280;74246;42.044;-91.642;2024-03-25T01:55:48;97509.53;;;9.68;43.34
82256;BME280;74246;42.044;-91.642;2024-03-25T01:56:21;97630.97;;;10.78;41.36
82256;BME280;74246;42.044;-91.642;2024-03-25T01:56:55;97664.75;;;11.17;41.11
82256;BME280;74246;42.044;-91.642;2024-03-25T01:57:27;97486.56;;;9.99;41.22
82256;BME280;74246;42.044;-91.642;2024-03-25T01:57:59;97675.06;;;11.20;40.94
82256;BME280;74246;42.044;-91.642;2024-03-25T01:58:31;97645.75;;;11.12;41.37
82256;BME280;74246;42.044;-91.642;2024-03-25T01:59:03;97621.78;;;10.93;41.40
82256;BME280;74246;42.044;-91.642;2024-03-25T01:59:39;97631.22;;;11.38;41.43
82256;BME280;74246;42.044;-91.642;2024-03-25T02:00:22;97612.38;;;11.43;40.28
82256;BME280;74246;42.044;-91.642;2024-03-25T02:00:55;97655.97;;;11.57;40.47
82256;BME280;74246;42.044;-91.642;2024-03-25T02:01:28;97388.56;;;9.52;41.23
82256;BME280;74246;42.044;-91.642;2024-03-25T02:02:01;97417.66;;;9.53;41.49
82256;BME280;74246;42.044;-91.642;2024-03-25T02:02:33;97648.72;;;10.61;41.97
82256;BME280;74246;42.044;-91.642;2024-03-25T02:03:06;97648.97;;;10.53;42.73
82256;BME280;74246;42.044;-91.642;2024-03-25T02:03:39;97551.84;;;9.44;43.15
82256;BME280;74246;42.044;-91.642;2024-03-25T02:04:11;97505.91;;;9.45;43.39
82256;BME280;74246;42.044;-91.642;2024-03-25T02:04:43;97647.88;;;10.57;42.83
82256;BME280;74246;42.044;-91.642;2024-03-25T02:05:17;97599.63;;;10.09;43.40
82256;BME280;74246;42.044;-91.642;2024-03-25T02:05:59;97659.69;;;10.19;43.34
82256;BME280;74246;42.044;-91.642;2024-03-25T02:06:32;97660.53;;;9.89;44.99
82256;BME280;74246;42.044;-91.642;2024-03-25T02:07:09;97660.38;;;10.16;44.60
82256;BME280;74246;42.044;-91.642;2024-03-25T02:07:43;97662.69;;;10.49;44.02
82256;BME280;74246;42.044;-91.642;2024-03-25T02:08:15;97658.66;;;10.47;42.56
82256;BME280;74246;42.044;-91.642;2024-03-25T02:08:48;97654.97;;;10.58;42.85
82256;BME280;74246;42.044;-91.642;2024-03-25T02:09:22;97657.72;;;10.39;44.51
82256;BME280;74246;42.044;-91.642;2024-03-25T02:09:55;97628.97;;;10.37;43.47
82256;BME280;74246;42.044;-91.642;2024-03-25T02:10:28;97394.72;;;9.07;42.79
82256;BME280;74246;42.044;-91.642;2024-03-25T02:11:01;97535.53;;;9.90;42.69
82256;BME280;74246;42.044;-91.642;2024-03-25T02:11:34;97628.75;;;10.45;43.26
82256;BME280;74246;42.044;-91.642;2024-03-25T02:12:06;97609.34;;;10.19;43.11
82256;BME280;74246;42.044;-91.642;2024-03-25T02:12:44;97638.75;;;9.99;44.37
82256;BME280;74246;42.044;-91.642;2024-03-25T02:13:17;97536.81;;;9.22;44.41
82256;BME280;74246;42.044;-91.642;2024-03-25T02:13:50;97570.03;;;9.49;43.93
82256;BME280;74246;42.044;-91.642;2024-03-25T02:14:22;97643.97;;;9.85;44.29
82256;BME280;74246;42.044;-91.642;2024-03-25T02:14:57;97621.22;;;9.88;44.34
82256;BME280;74246;42.044;-91.642;2024-03-25T02:15:30;97588.84;;;9.82;43.61
82256;BME280;74246;42.044;-91.642;2024-03-25T02:16:02;97568.50;;;9.51;44.08
82256;BME280;74246;42.044;-91.642;2024-03-25T02:16:35;97531.94;;;9.51;43.64
82256;BME280;74246;42.044;-91.642;2024-03-25T02:17:07;97596.50;;;10.46;42.19
82256;BME280;74246;42.044;-91.642;2024-03-25T02:17:41;97544.84;;;10.43;41.46
82256;BME280;74246;42.044;-91.642;2024-03-25T02:18:16;97650.59;;;10.77;41.35
82256;BME280;74246;42.044;-91.642;2024-03-25T02:18:51;97656.66;;;10.63;42.44
82256;BME280;74246;42.044;-91.642;2024-03-25T02:19:24;97635.34;;;10.21;43.37
82256;BME280;74246;42.044;-91.642;2024-03-25T02:19:56;97653.34;;;10.96;42.30
82256;BME280;74246;42.044;-91.642;2024-03-25T02:20:28;97656.31;;;10.87;41.46
82256;BME280;74246;42.044;-91.642;2024-03-25T02:21:01;97514.97;;;9.84;41.27
82256;BME280;74246;42.044;-91.642;2024-03-25T02:21:33;97659.25;;;10.56;41.76
82256;BME280;74246;42.044;-91.642;2024-03-25T02:22:05;97655.34;;;10.57;42.43
82256;BME280;74246;42.044;-91.642;2024-03-25T02:22:37;97647.38;;;10.52;42.42
82256;BME280;74246;42.044;-91.642;2024-03-25T02:23:09;97647.47;;;10.97;41.35
82256;BME280;74246;42.044;-91.642;2024-03-25T02:23:42;97634.94;;;10.81;41.55
82256;BME280;74246;42.044;-91.642;2024-03-25T02:24:21;97635.34;;;10.21;42.25
82256;BME280;74246;42.044;-91.642;2024-03-25T02:24:57;97635.06;;;9.92;43.69
82256;BME280;74246;42.044;-91.642;2024-03-25T02:25:31;97647.63;;;10.08;43.73
82256;BME280;74246;42.044;-91.642;2024-03-25T02:26:07;97657.66;;;10.36;43.22
82256;BME280;74246;42.044;-91.642;2024-03-25T02:26:39;97638.97;;;10.45;42.56
82256;BME280;74246;42.044;-91.642;2024-03-25T02:27:14;97658.75;;;10.50;41.82
82256;BME280;74246;42.044;-91.642;2024-03-25T02:27:46;97573.56;;;10.03;42.12
82256;BME280;74246;42.044;-91.642;2024-03-25T02:28:18;97653.53;;;10.26;42.81
82256;BME280;74246;42.044;-91.642;2024-03-25T02:28:50;97621.09;;;9.65;43.73
82256;BME280;74246;42.044;-91.642;2024-03-25T02:29:22;97657.41;;;9.90;43.62
82256;BME280;74246;42.044;-91.642;2024-03-25T02:29:57;97621.91;;;9.50;43.58
82256;BME280;74246;42.044;-91.642;2024-03-25T02:30:33;97503.22;;;9.13;43.85
82256;BME280;74246;42.044;-91.642;2024-03-25T02:31:05;97567.16;;;9.10;44.17
82256;BME280;74246;42.044;-91.642;2024-03-25T02:31:43;97382.84;;;8.34;42.91
82256;BME280;74246;42.044;-91.642;2024-03-25T02:32:18;97381.56;;;8.31;43.34
82256;BME280;74246;42.044;-91.642;2024-03-25T02:32:50;97502.06;;;9.14;42.79
82256;BME280;74246;42.044;-91.642;2024-03-25T02:33:22;97662.91;;;9.90;42.56
82256;BME280;74246;42.044;-91.642;2024-03-25T02:33:54;97622.72;;;9.51;42.90
82256;BME280;74246;42.044;-91.642;2024-03-25T02:34:27;97668.31;;;10.02;43.19
82256;BME280;74246;42.044;-91.642;2024-03-25T02:34:59;97670.94;;;10.30;42.92
82256;BME280;74246;42.044;-91.642;2024-03-25T02:35:31;97675.06;;;10.40;42.52
82256;BME280;74246;42.044;-91.642;2024-03-25T02:36:04;97647.03;;;10.76;40.91
82256;BME280;74246;42.044;-91.642;2024-03-25T02:36:37;97680.56;;;10.40;42.51
82256;BME280;74246;42.044;-91.642;2024-03-25T02:37:09;97687.25;;;10.58;42.05
82256;BME280;74246;42.044;-91.642;2024-03-25T02:37:41;97672.75;;;10.42;41.70
82256;BME280;74246;42.044;-91.642;2024-03-25T02:38:14;97676.00;;;10.12;42.35
82256;BME280;74246;42.044;-91.642;2024-03-25T02:38:49;97456.66;;;8.86;42.35
82256;BME280;74246;42.044;-91.642;2024-03-25T02:39:21;97584.56;;;9.84;42.42
82256;BME280;74246;42.044;-91.642;2024-03-25T02:39:57;97645.56;;;10.21;42.03
82256;BME280;74246;42.044;-91.642;2024-03-25T02:40:30;97632.28;;;9.57;42.96
82256;BME280;74246;42.044;-91.642;2024-03-25T02:41:03;97630.38;;;10.11;42.73
82256;BME280;74246;42.044;-91.642;2024-03-25T02:41:35;97632.88;;;9.82;43.36
82256;BME280;74246;42.044;-91.642;2024-03-25T02:42:07;97632.53;;;10.02;42.69
82256;BME280;74246;42.044;-91.642;2024-03-25T02:42:40;97561.13;;;9.55;42.85
82256;BME280;74246;42.044;-91.642;2024-03-25T02:43:12;97646.34;;;10.21;43.07
82256;BME280;74246;42.044;-91.642;2024-03-25T02:43:44;97636.91;;;9.53;43.82
82256;BME280;74246;42.044;-91.642;2024-03-25T02:44:19;97645.44;;;9.32;43.93
82256;BME280;74246;42.044;-91.642;2024-03-25T02:44:51;97658.28;;;9.59;43.81
82256;BME280;74246;42.044;-91.642;2024-03-25T02:45:23;97659.91;;;9.95;43.52
82256;BME280;74246;42.044;-91.642;2024-03-25T02:45:55;97662.97;;;10.44;42.09
82256;BME280;74246;42.044;-91.642;2024-03-25T02:46:27;97589.78;;;9.89;41.25
82256;BME280;74246;42.044;-91.642;2024-03-25T02:47:00;97701.03;;;10.77;41.07
82256;BME280;74246;42.044;-91.642;2024-03-25T02:47:32;97683.09;;;10.87;40.92
82256;BME280;74246;42.044;-91.642;2024-03-25T02:48:05;97678.81;;;11.31;40.31
82256;BME280;74246;42.044;-91.642;2024-03-25T02:48:37;97596.94;;;10.29;40.51
82256;BME280;74246;42.044;-91.642;2024-03-25T02:49:08;97686.88;;;10.05;42.35
82256;BME280;74246;42.044;-91.642;2024-03-25T02:49:43;97692.69;;;10.54;41.63